BAW257 EGLL-LIRF
Flight info
| Callsign | BAW257 |
|---|---|
| Flight time | 2h 8m |
| Altitude | 39000 |
| Route | MODMI M185 MID L612 BOGNA UL612 OGULO DCT OKASI DCT OKEKO DCT MOU DCT MADIV DCT MOKIP DCT TUFTA DCT KOGAS DCT MEDAM DCT NITAM DCT MOGBO DCT ELB DCT ELKAP |
| Aircraft | A20N/M-SDE2E3FGHIJ1RWXY/LB1 |
Departure
| Time | 2026-05-07 07:47 |
|---|---|
| Airport | London Heathrow Airport (EGLL) |
Arrival
| Time | 2026-05-07 09:55 |
|---|---|
| Airport | Rome–Fiumicino Leonardo da Vinci International Airport (LIRF) |
| Time | Latitude | Longitude | Altitude | Speed | Heading |
|---|---|---|---|---|---|
| 2026-05-07 07:01 | 51.47187 | -0.48606 | 87 ft | 0 kts | 269° |
| 2026-05-07 07:37 | 51.47187 | -0.48580 | 87 ft | 4 kts | 267° |
| 2026-05-07 07:38 | 51.47190 | -0.48537 | 87 ft | 4 kts | 259° |
| 2026-05-07 07:38 | 51.47197 | -0.48496 | 89 ft | 4 kts | 236° |
| 2026-05-07 07:38 | 51.47213 | -0.48476 | 89 ft | 1 kts | 180° |
| 2026-05-07 07:38 | 51.47218 | -0.48476 | 88 ft | 0 kts | 179° |
| 2026-05-07 07:41 | 51.47207 | -0.48476 | 90 ft | 4 kts | 179° |
| 2026-05-07 07:42 | 51.47167 | -0.48475 | 88 ft | 8 kts | 179° |
| 2026-05-07 07:42 | 51.47105 | -0.48474 | 86 ft | 8 kts | 179° |
| 2026-05-07 07:42 | 51.47037 | -0.48474 | 86 ft | 11 kts | 179° |
| 2026-05-07 07:42 | 51.46962 | -0.48473 | 89 ft | 10 kts | 180° |
| 2026-05-07 07:43 | 51.46886 | -0.48472 | 88 ft | 11 kts | 180° |
| 2026-05-07 07:43 | 51.46798 | -0.48472 | 89 ft | 12 kts | 179° |
| 2026-05-07 07:43 | 51.46709 | -0.48471 | 87 ft | 11 kts | 180° |
| 2026-05-07 07:43 | 51.46636 | -0.48470 | 87 ft | 7 kts | 179° |
| 2026-05-07 07:44 | 51.46600 | -0.48470 | 87 ft | 0 kts | 179° |
| 2026-05-07 07:45 | 51.46589 | -0.48469 | 87 ft | 4 kts | 179° |
| 2026-05-07 07:45 | 51.46549 | -0.48469 | 88 ft | 7 kts | 180° |
| 2026-05-07 07:45 | 51.46494 | -0.48451 | 90 ft | 9 kts | 146° |
| 2026-05-07 07:45 | 51.46478 | -0.48361 | 88 ft | 5 kts | 89° |
| 2026-05-07 07:46 | 51.46478 | -0.48229 | 88 ft | 39 kts | 90° |
| 2026-05-07 07:46 | 51.46483 | -0.47272 | 90 ft | 128 kts | 89° |
| 2026-05-07 07:46 | 51.46482 | -0.45496 | 222 ft | 183 kts | 91° |
| 2026-05-07 07:46 | 51.46497 | -0.43263 | 568 ft | 220 kts | 89° |
| 2026-05-07 07:47 | 51.46511 | -0.40611 | 1195 ft | 248 kts | 96° |
| 2026-05-07 07:47 | 51.45947 | -0.38100 | 2581 ft | 241 kts | 124° |
| 2026-05-07 07:47 | 51.44699 | -0.36243 | 3491 ft | 253 kts | 152° |
| 2026-05-07 07:47 | 51.43067 | -0.35106 | 4523 ft | 258 kts | 160° |
| 2026-05-07 07:48 | 51.41317 | -0.34331 | 5377 ft | 263 kts | 176° |
| 2026-05-07 07:48 | 51.39524 | -0.34774 | 5878 ft | 266 kts | 205° |
| 2026-05-07 07:48 | 51.38005 | -0.36448 | 6864 ft | 267 kts | 218° |
| 2026-05-07 07:48 | 51.36473 | -0.38174 | 7906 ft | 272 kts | 213° |
| 2026-05-07 07:49 | 51.34814 | -0.39709 | 8843 ft | 279 kts | 209° |
| 2026-05-07 07:49 | 51.33061 | -0.41142 | 9828 ft | 286 kts | 207° |
| 2026-05-07 07:49 | 51.31245 | -0.42549 | 10600 ft | 299 kts | 206° |
| 2026-05-07 07:49 | 51.29298 | -0.44042 | 11023 ft | 322 kts | 206° |
| 2026-05-07 07:50 | 51.27217 | -0.45643 | 11531 ft | 338 kts | 206° |
| 2026-05-07 07:50 | 51.25087 | -0.47286 | 12453 ft | 341 kts | 206° |
| 2026-05-07 07:50 | 51.22941 | -0.48944 | 13404 ft | 345 kts | 206° |
| 2026-05-07 07:50 | 51.20768 | -0.50626 | 14247 ft | 349 kts | 206° |
| 2026-05-07 07:51 | 51.18568 | -0.52331 | 15068 ft | 353 kts | 206° |
| 2026-05-07 07:51 | 51.16346 | -0.54051 | 15863 ft | 357 kts | 206° |
| 2026-05-07 07:51 | 51.14094 | -0.55793 | 16634 ft | 362 kts | 206° |
| 2026-05-07 07:51 | 51.11817 | -0.57551 | 17412 ft | 366 kts | 206° |
| 2026-05-07 07:52 | 51.09513 | -0.59322 | 18168 ft | 371 kts | 205° |
| 2026-05-07 07:52 | 51.07024 | -0.60463 | 18846 ft | 375 kts | 187° |
| 2026-05-07 07:52 | 51.04412 | -0.60314 | 19508 ft | 380 kts | 169° |
| 2026-05-07 07:52 | 51.01916 | -0.58872 | 20149 ft | 385 kts | 151° |
| 2026-05-07 07:53 | 50.99655 | -0.56559 | 20787 ft | 390 kts | 146° |
| 2026-05-07 07:53 | 50.97410 | -0.54105 | 21432 ft | 394 kts | 146° |
| 2026-05-07 07:53 | 50.95142 | -0.51618 | 22068 ft | 398 kts | 146° |
| 2026-05-07 07:53 | 50.92843 | -0.49125 | 22709 ft | 402 kts | 146° |
| 2026-05-07 07:54 | 50.90518 | -0.46631 | 23336 ft | 406 kts | 147° |
| 2026-05-07 07:54 | 50.88161 | -0.44121 | 23904 ft | 410 kts | 147° |
| 2026-05-07 07:54 | 50.85782 | -0.41596 | 24441 ft | 413 kts | 147° |
| 2026-05-07 07:54 | 50.83385 | -0.39058 | 24955 ft | 416 kts | 147° |
| 2026-05-07 07:55 | 50.80965 | -0.36499 | 25470 ft | 420 kts | 147° |
| 2026-05-07 07:55 | 50.78527 | -0.33925 | 25966 ft | 423 kts | 147° |
| 2026-05-07 07:55 | 50.76071 | -0.31334 | 26454 ft | 426 kts | 147° |
| 2026-05-07 07:55 | 50.73598 | -0.28728 | 26932 ft | 429 kts | 147° |
| 2026-05-07 07:56 | 50.71134 | -0.26136 | 27386 ft | 433 kts | 147° |
| 2026-05-07 07:56 | 50.68622 | -0.23495 | 27845 ft | 436 kts | 147° |
| 2026-05-07 07:56 | 50.66090 | -0.20836 | 28277 ft | 439 kts | 147° |
| 2026-05-07 07:56 | 50.63544 | -0.18165 | 28696 ft | 442 kts | 147° |
| 2026-05-07 07:57 | 50.60976 | -0.15476 | 29105 ft | 444 kts | 148° |
| 2026-05-07 07:57 | 50.58393 | -0.12773 | 29503 ft | 447 kts | 148° |
| 2026-05-07 07:57 | 50.55787 | -0.10050 | 29917 ft | 450 kts | 148° |
| 2026-05-07 07:57 | 50.53174 | -0.07325 | 30258 ft | 453 kts | 148° |
| 2026-05-07 07:58 | 50.50539 | -0.04580 | 30606 ft | 455 kts | 148° |
| 2026-05-07 07:58 | 50.47897 | -0.01831 | 30959 ft | 457 kts | 148° |
| 2026-05-07 07:58 | 50.45237 | 0.00933 | 31336 ft | 459 kts | 148° |
| 2026-05-07 07:58 | 50.42577 | 0.03693 | 31797 ft | 458 kts | 148° |
| 2026-05-07 07:59 | 50.39921 | 0.06444 | 32259 ft | 457 kts | 148° |
| 2026-05-07 07:59 | 50.37275 | 0.09180 | 32727 ft | 456 kts | 148° |
| 2026-05-07 07:59 | 50.34625 | 0.11915 | 33173 ft | 455 kts | 148° |
| 2026-05-07 07:59 | 50.31988 | 0.14630 | 33618 ft | 454 kts | 148° |
| 2026-05-07 08:00 | 50.29350 | 0.17342 | 34059 ft | 453 kts | 148° |
| 2026-05-07 08:00 | 50.26755 | 0.20007 | 34387 ft | 452 kts | 148° |
| 2026-05-07 08:00 | 50.24130 | 0.22699 | 34695 ft | 452 kts | 148° |
| 2026-05-07 08:00 | 50.21497 | 0.25396 | 35003 ft | 452 kts | 148° |
| 2026-05-07 08:01 | 50.18868 | 0.28089 | 35290 ft | 453 kts | 148° |
| 2026-05-07 08:01 | 50.16237 | 0.30793 | 35580 ft | 453 kts | 148° |
| 2026-05-07 08:01 | 50.13607 | 0.33499 | 35859 ft | 453 kts | 148° |
| 2026-05-07 08:01 | 50.11116 | 0.36059 | 36127 ft | 453 kts | 148° |
| 2026-05-07 08:02 | 50.08489 | 0.38754 | 36393 ft | 453 kts | 148° |
| 2026-05-07 08:02 | 50.05855 | 0.41451 | 36656 ft | 453 kts | 148° |
| 2026-05-07 08:02 | 50.03218 | 0.44146 | 36912 ft | 453 kts | 148° |
| 2026-05-07 08:02 | 50.00586 | 0.46833 | 37163 ft | 453 kts | 148° |
| 2026-05-07 08:03 | 49.97946 | 0.49524 | 37413 ft | 453 kts | 148° |
| 2026-05-07 08:03 | 49.95311 | 0.52207 | 37652 ft | 453 kts | 148° |
| 2026-05-07 08:03 | 49.92671 | 0.54891 | 37888 ft | 454 kts | 148° |
| 2026-05-07 08:03 | 49.90028 | 0.57574 | 38105 ft | 454 kts | 148° |
| 2026-05-07 08:04 | 49.87385 | 0.60254 | 38341 ft | 454 kts | 148° |
| 2026-05-07 08:04 | 49.84800 | 0.63056 | 38560 ft | 454 kts | 143° |
| 2026-05-07 08:04 | 49.82345 | 0.66148 | 38754 ft | 455 kts | 142° |
| 2026-05-07 08:04 | 49.79900 | 0.69246 | 38924 ft | 454 kts | 142° |
| 2026-05-07 08:05 | 49.77445 | 0.72347 | 39038 ft | 455 kts | 142° |
| 2026-05-07 08:05 | 49.72579 | 0.78465 | 39066 ft | 453 kts | 142° |
| 2026-05-07 08:06 | 49.68484 | 0.83595 | 39060 ft | 453 kts | 142° |
| 2026-05-07 08:06 | 49.63583 | 0.89717 | 39058 ft | 453 kts | 142° |
| 2026-05-07 08:07 | 49.58680 | 0.95828 | 39063 ft | 453 kts | 142° |
| 2026-05-07 08:07 | 49.53780 | 1.01918 | 39068 ft | 453 kts | 142° |
| 2026-05-07 08:08 | 49.48867 | 1.08008 | 39071 ft | 453 kts | 142° |
| 2026-05-07 08:08 | 49.43956 | 1.14079 | 39072 ft | 453 kts | 142° |
| 2026-05-07 08:09 | 49.39066 | 1.20109 | 39070 ft | 453 kts | 143° |
| 2026-05-07 08:09 | 49.34144 | 1.26162 | 39071 ft | 453 kts | 143° |
| 2026-05-07 08:10 | 49.29187 | 1.32245 | 39065 ft | 454 kts | 143° |
| 2026-05-07 08:10 | 49.24257 | 1.38278 | 39063 ft | 454 kts | 143° |
| 2026-05-07 08:11 | 49.19348 | 1.44269 | 39054 ft | 454 kts | 143° |
| 2026-05-07 08:11 | 49.14373 | 1.50324 | 39051 ft | 454 kts | 143° |
| 2026-05-07 08:12 | 49.09457 | 1.56292 | 39044 ft | 455 kts | 143° |
| 2026-05-07 08:12 | 49.04500 | 1.62294 | 38934 ft | 456 kts | 143° |
| 2026-05-07 08:12 | 49.02008 | 1.65305 | 38506 ft | 456 kts | 143° |
| 2026-05-07 08:13 | 48.99529 | 1.68297 | 38030 ft | 454 kts | 143° |
| 2026-05-07 08:13 | 48.97063 | 1.71270 | 37815 ft | 450 kts | 143° |
| 2026-05-07 08:13 | 48.94607 | 1.74227 | 37886 ft | 452 kts | 143° |
| 2026-05-07 08:13 | 48.92131 | 1.77203 | 38023 ft | 454 kts | 143° |
| 2026-05-07 08:14 | 48.89648 | 1.80183 | 38164 ft | 456 kts | 143° |
| 2026-05-07 08:14 | 48.87154 | 1.83173 | 38304 ft | 456 kts | 143° |
| 2026-05-07 08:14 | 48.84662 | 1.86158 | 38440 ft | 456 kts | 143° |
| 2026-05-07 08:14 | 48.82177 | 1.89131 | 38580 ft | 456 kts | 143° |
| 2026-05-07 08:15 | 48.79684 | 1.92108 | 38710 ft | 456 kts | 143° |
| 2026-05-07 08:15 | 48.78030 | 1.94081 | 38784 ft | 456 kts | 143° |
| 2026-05-07 08:16 | 48.74776 | 1.97958 | 38931 ft | 456 kts | 143° |
| 2026-05-07 08:16 | 48.69789 | 2.03888 | 39048 ft | 456 kts | 143° |
| 2026-05-07 08:17 | 48.64798 | 2.09807 | 39049 ft | 456 kts | 143° |
| 2026-05-07 08:17 | 48.59800 | 2.15719 | 39047 ft | 456 kts | 143° |
| 2026-05-07 08:18 | 48.54984 | 2.21972 | 39050 ft | 457 kts | 136° |
| 2026-05-07 08:18 | 48.50514 | 2.28809 | 39045 ft | 458 kts | 136° |
| 2026-05-07 08:19 | 48.46033 | 2.35643 | 39049 ft | 459 kts | 134° |
| 2026-05-07 08:19 | 48.44106 | 2.39470 | 39050 ft | 460 kts | 121° |
| 2026-05-07 08:19 | 48.42712 | 2.43737 | 39049 ft | 462 kts | 113° |
| 2026-05-07 08:20 | 48.39686 | 2.52273 | 39048 ft | 459 kts | 131° |
| 2026-05-07 08:20 | 48.37432 | 2.55657 | 39046 ft | 456 kts | 144° |
| 2026-05-07 08:20 | 48.34793 | 2.58239 | 39044 ft | 453 kts | 154° |
| 2026-05-07 08:21 | 48.29107 | 2.62150 | 39041 ft | 452 kts | 159° |
| 2026-05-07 08:21 | 48.23334 | 2.65929 | 39044 ft | 453 kts | 158° |
| 2026-05-07 08:22 | 48.17709 | 2.70209 | 39048 ft | 454 kts | 153° |
| 2026-05-07 08:22 | 48.12149 | 2.74701 | 39050 ft | 455 kts | 153° |
| 2026-05-07 08:23 | 48.06506 | 2.78978 | 39056 ft | 453 kts | 159° |
| 2026-05-07 08:23 | 48.00696 | 2.82654 | 39058 ft | 454 kts | 159° |
| 2026-05-07 08:24 | 47.94888 | 2.86334 | 39054 ft | 454 kts | 159° |
| 2026-05-07 08:24 | 47.89075 | 2.90019 | 39059 ft | 454 kts | 159° |
| 2026-05-07 08:25 | 47.83252 | 2.93703 | 39058 ft | 454 kts | 159° |
| 2026-05-07 08:25 | 47.77435 | 2.97373 | 39059 ft | 454 kts | 159° |
| 2026-05-07 08:26 | 47.68714 | 3.02859 | 39056 ft | 454 kts | 159° |
| 2026-05-07 08:26 | 47.62894 | 3.06508 | 39051 ft | 454 kts | 159° |
| 2026-05-07 08:27 | 47.57076 | 3.10148 | 39053 ft | 453 kts | 159° |
| 2026-05-07 08:27 | 47.51263 | 3.13776 | 39052 ft | 453 kts | 159° |
| 2026-05-07 08:28 | 47.45450 | 3.17393 | 39049 ft | 453 kts | 159° |
| 2026-05-07 08:28 | 47.39670 | 3.20981 | 39044 ft | 453 kts | 159° |
| 2026-05-07 08:29 | 47.33822 | 3.24603 | 39041 ft | 453 kts | 159° |
| 2026-05-07 08:29 | 47.28123 | 3.28124 | 39037 ft | 453 kts | 159° |
| 2026-05-07 08:30 | 47.22349 | 3.31684 | 39039 ft | 453 kts | 159° |
| 2026-05-07 08:30 | 47.16537 | 3.35258 | 39037 ft | 453 kts | 160° |
| 2026-05-07 08:31 | 47.10720 | 3.38826 | 39044 ft | 453 kts | 160° |
| 2026-05-07 08:31 | 47.04906 | 3.42384 | 39032 ft | 453 kts | 160° |
| 2026-05-07 08:32 | 46.99086 | 3.45938 | 39039 ft | 453 kts | 160° |
| 2026-05-07 08:32 | 46.93259 | 3.49487 | 39038 ft | 453 kts | 160° |
| 2026-05-07 08:33 | 46.87436 | 3.53025 | 39038 ft | 454 kts | 160° |
| 2026-05-07 08:33 | 46.81602 | 3.56562 | 39029 ft | 454 kts | 160° |
| 2026-05-07 08:34 | 46.75976 | 3.60762 | 39021 ft | 458 kts | 146° |
| 2026-05-07 08:34 | 46.71455 | 3.67319 | 39019 ft | 463 kts | 127° |
| 2026-05-07 08:35 | 46.68565 | 3.75699 | 39016 ft | 467 kts | 108° |
| 2026-05-07 08:35 | 46.66992 | 3.84906 | 39013 ft | 468 kts | 105° |
| 2026-05-07 08:36 | 46.65430 | 3.94117 | 39028 ft | 469 kts | 105° |
| 2026-05-07 08:36 | 46.63838 | 4.03322 | 39033 ft | 470 kts | 105° |
| 2026-05-07 08:37 | 46.62234 | 4.12541 | 39034 ft | 470 kts | 105° |
| 2026-05-07 08:37 | 46.60633 | 4.21698 | 39042 ft | 471 kts | 105° |
| 2026-05-07 08:38 | 46.59009 | 4.30938 | 39044 ft | 471 kts | 105° |
| 2026-05-07 08:38 | 46.57380 | 4.40164 | 39042 ft | 472 kts | 105° |
| 2026-05-07 08:39 | 46.55739 | 4.49406 | 39038 ft | 472 kts | 105° |
| 2026-05-07 08:39 | 46.54095 | 4.58616 | 39038 ft | 472 kts | 105° |
| 2026-05-07 08:40 | 46.52439 | 4.67851 | 39036 ft | 472 kts | 106° |
| 2026-05-07 08:40 | 46.50780 | 4.77058 | 39034 ft | 472 kts | 106° |
| 2026-05-07 08:41 | 46.49112 | 4.86267 | 39029 ft | 472 kts | 106° |
| 2026-05-07 08:41 | 46.47435 | 4.95478 | 39024 ft | 472 kts | 106° |
| 2026-05-07 08:42 | 46.45753 | 5.04669 | 39026 ft | 472 kts | 106° |
| 2026-05-07 08:42 | 46.44066 | 5.13852 | 39024 ft | 472 kts | 106° |
| 2026-05-07 08:43 | 46.42373 | 5.23040 | 39024 ft | 472 kts | 106° |
| 2026-05-07 08:43 | 46.40674 | 5.32214 | 39021 ft | 472 kts | 106° |
| 2026-05-07 08:44 | 46.38346 | 5.41048 | 39020 ft | 469 kts | 120° |
| 2026-05-07 08:44 | 46.34808 | 5.48911 | 39015 ft | 465 kts | 132° |
| 2026-05-07 08:45 | 46.30606 | 5.56010 | 39018 ft | 464 kts | 133° |
| 2026-05-07 08:45 | 46.26415 | 5.63111 | 39011 ft | 465 kts | 133° |
| 2026-05-07 08:46 | 46.22199 | 5.70232 | 39015 ft | 465 kts | 133° |
| 2026-05-07 08:46 | 46.18017 | 5.77271 | 39021 ft | 466 kts | 133° |
| 2026-05-07 08:47 | 46.13783 | 5.84379 | 39022 ft | 466 kts | 133° |
| 2026-05-07 08:47 | 46.09553 | 5.91464 | 39021 ft | 467 kts | 134° |
| 2026-05-07 08:48 | 46.05313 | 5.98544 | 39025 ft | 466 kts | 134° |
| 2026-05-07 08:48 | 46.01074 | 6.05604 | 39024 ft | 466 kts | 134° |
| 2026-05-07 08:49 | 45.96828 | 6.12659 | 39026 ft | 466 kts | 134° |
| 2026-05-07 08:49 | 45.92579 | 6.19702 | 39024 ft | 467 kts | 134° |
| 2026-05-07 08:50 | 45.88320 | 6.26743 | 39024 ft | 467 kts | 134° |
| 2026-05-07 08:50 | 45.84055 | 6.33777 | 39015 ft | 466 kts | 134° |
| 2026-05-07 08:51 | 45.79468 | 6.40294 | 39007 ft | 462 kts | 144° |
| 2026-05-07 08:51 | 45.74329 | 6.45743 | 39002 ft | 460 kts | 149° |
| 2026-05-07 08:52 | 45.69104 | 6.51035 | 39009 ft | 459 kts | 149° |
| 2026-05-07 08:52 | 45.63899 | 6.56319 | 39000 ft | 459 kts | 149° |
| 2026-05-07 08:53 | 45.59580 | 6.60697 | 39002 ft | 459 kts | 149° |
| 2026-05-07 08:53 | 45.54348 | 6.65987 | 39010 ft | 461 kts | 149° |
| 2026-05-07 08:54 | 45.49109 | 6.71272 | 39014 ft | 462 kts | 149° |
| 2026-05-07 08:54 | 45.43850 | 6.76566 | 39025 ft | 463 kts | 149° |
| 2026-05-07 08:55 | 45.38581 | 6.81857 | 39033 ft | 465 kts | 149° |
| 2026-05-07 08:55 | 45.33288 | 6.87160 | 39041 ft | 466 kts | 149° |
| 2026-05-07 08:56 | 45.27988 | 6.92475 | 39040 ft | 467 kts | 147° |
| 2026-05-07 08:56 | 45.23066 | 6.98594 | 39028 ft | 473 kts | 139° |
| 2026-05-07 08:57 | 45.18360 | 7.05122 | 39023 ft | 473 kts | 140° |
| 2026-05-07 08:57 | 45.13635 | 7.11628 | 39035 ft | 473 kts | 140° |
| 2026-05-07 08:58 | 45.09215 | 7.18569 | 39017 ft | 477 kts | 130° |
| 2026-05-07 08:58 | 45.05393 | 7.26264 | 39018 ft | 478 kts | 128° |
| 2026-05-07 08:59 | 45.01607 | 7.33905 | 39007 ft | 477 kts | 128° |
| 2026-05-07 08:59 | 44.97642 | 7.41379 | 39012 ft | 473 kts | 135° |
| 2026-05-07 09:00 | 44.93072 | 7.47963 | 39009 ft | 468 kts | 140° |
| 2026-05-07 09:00 | 44.88435 | 7.54417 | 39003 ft | 467 kts | 140° |
| 2026-05-07 09:01 | 44.83819 | 7.60858 | 38997 ft | 466 kts | 140° |
| 2026-05-07 09:01 | 44.79205 | 7.67282 | 39009 ft | 465 kts | 140° |
| 2026-05-07 09:02 | 44.74600 | 7.73674 | 38991 ft | 465 kts | 140° |
| 2026-05-07 09:02 | 44.69994 | 7.80052 | 38991 ft | 464 kts | 140° |
| 2026-05-07 09:03 | 44.65386 | 7.86417 | 38982 ft | 465 kts | 140° |
| 2026-05-07 09:03 | 44.60773 | 7.92774 | 38980 ft | 465 kts | 140° |
| 2026-05-07 09:04 | 44.56148 | 7.99133 | 38992 ft | 466 kts | 140° |
| 2026-05-07 09:04 | 44.51512 | 8.05492 | 38991 ft | 467 kts | 140° |
| 2026-05-07 09:05 | 44.46864 | 8.11852 | 39002 ft | 468 kts | 140° |
| 2026-05-07 09:05 | 44.42193 | 8.18229 | 39010 ft | 469 kts | 140° |
| 2026-05-07 09:06 | 44.37514 | 8.24602 | 39011 ft | 470 kts | 140° |
| 2026-05-07 09:06 | 44.32827 | 8.30972 | 39021 ft | 470 kts | 140° |
| 2026-05-07 09:07 | 44.28133 | 8.37335 | 39029 ft | 471 kts | 141° |
| 2026-05-07 09:07 | 44.23458 | 8.43658 | 39029 ft | 471 kts | 141° |
| 2026-05-07 09:08 | 44.18755 | 8.50004 | 39019 ft | 470 kts | 141° |
| 2026-05-07 09:08 | 44.14055 | 8.56330 | 39013 ft | 469 kts | 141° |
| 2026-05-07 09:09 | 44.09366 | 8.62628 | 39005 ft | 468 kts | 141° |
| 2026-05-07 09:09 | 44.04682 | 8.68904 | 38995 ft | 467 kts | 141° |
| 2026-05-07 09:10 | 43.99996 | 8.75168 | 38988 ft | 466 kts | 141° |
| 2026-05-07 09:10 | 43.95321 | 8.81403 | 38982 ft | 466 kts | 141° |
| 2026-05-07 09:11 | 43.90652 | 8.87615 | 38975 ft | 465 kts | 141° |
| 2026-05-07 09:11 | 43.85978 | 8.93820 | 38969 ft | 465 kts | 141° |
| 2026-05-07 09:12 | 43.81308 | 9.00006 | 38971 ft | 465 kts | 141° |
| 2026-05-07 09:12 | 43.76625 | 9.06194 | 38978 ft | 465 kts | 142° |
| 2026-05-07 09:13 | 43.71940 | 9.12371 | 38981 ft | 466 kts | 142° |
| 2026-05-07 09:13 | 43.67245 | 9.18547 | 38986 ft | 466 kts | 142° |
| 2026-05-07 09:14 | 43.62535 | 9.24730 | 38999 ft | 467 kts | 142° |
| 2026-05-07 09:14 | 43.57814 | 9.30913 | 39007 ft | 468 kts | 142° |
| 2026-05-07 09:15 | 43.53082 | 9.37095 | 39015 ft | 469 kts | 142° |
| 2026-05-07 09:15 | 43.48341 | 9.43275 | 39021 ft | 470 kts | 142° |
| 2026-05-07 09:16 | 43.43594 | 9.49449 | 39022 ft | 470 kts | 142° |
| 2026-05-07 09:16 | 43.38830 | 9.55631 | 39029 ft | 471 kts | 142° |
| 2026-05-07 09:17 | 43.34062 | 9.61805 | 39034 ft | 471 kts | 142° |
| 2026-05-07 09:17 | 43.29291 | 9.67969 | 39035 ft | 471 kts | 142° |
| 2026-05-07 09:18 | 43.24504 | 9.74138 | 39036 ft | 471 kts | 142° |
| 2026-05-07 09:18 | 43.19725 | 9.80284 | 39036 ft | 471 kts | 142° |
| 2026-05-07 09:19 | 43.14940 | 9.86424 | 39034 ft | 471 kts | 142° |
| 2026-05-07 09:19 | 43.10169 | 9.92535 | 38874 ft | 466 kts | 143° |
| 2026-05-07 09:20 | 43.07805 | 9.95559 | 38359 ft | 465 kts | 143° |
| 2026-05-07 09:20 | 43.05439 | 9.98579 | 37663 ft | 465 kts | 143° |
| 2026-05-07 09:20 | 43.03073 | 10.01596 | 36957 ft | 465 kts | 143° |
| 2026-05-07 09:20 | 43.00706 | 10.04610 | 36250 ft | 465 kts | 143° |
| 2026-05-07 09:21 | 42.98337 | 10.07625 | 35563 ft | 465 kts | 143° |
| 2026-05-07 09:21 | 42.95975 | 10.10627 | 34891 ft | 464 kts | 144° |
| 2026-05-07 09:21 | 42.93611 | 10.13629 | 34215 ft | 464 kts | 144° |
| 2026-05-07 09:21 | 42.91254 | 10.16618 | 33471 ft | 463 kts | 144° |
| 2026-05-07 09:22 | 42.88892 | 10.19611 | 32694 ft | 463 kts | 144° |
| 2026-05-07 09:22 | 42.86534 | 10.22593 | 31900 ft | 462 kts | 144° |
| 2026-05-07 09:22 | 42.84174 | 10.25576 | 31096 ft | 463 kts | 144° |
| 2026-05-07 09:22 | 42.81813 | 10.28558 | 30397 ft | 460 kts | 144° |
| 2026-05-07 09:23 | 42.79485 | 10.31502 | 29854 ft | 454 kts | 144° |
| 2026-05-07 09:23 | 42.77186 | 10.34405 | 29190 ft | 448 kts | 144° |
| 2026-05-07 09:23 | 42.75054 | 10.37513 | 28500 ft | 454 kts | 133° |
| 2026-05-07 09:23 | 42.73442 | 10.41228 | 27810 ft | 460 kts | 119° |
| 2026-05-07 09:24 | 42.72472 | 10.45381 | 27218 ft | 464 kts | 105° |
| 2026-05-07 09:24 | 42.72155 | 10.49750 | 26550 ft | 466 kts | 95° |
| 2026-05-07 09:24 | 42.72151 | 10.54142 | 25986 ft | 462 kts | 93° |
| 2026-05-07 09:24 | 42.72160 | 10.58443 | 25431 ft | 457 kts | 94° |
| 2026-05-07 09:25 | 42.71894 | 10.62701 | 24853 ft | 447 kts | 106° |
| 2026-05-07 09:25 | 42.70956 | 10.66652 | 24280 ft | 434 kts | 120° |
| 2026-05-07 09:25 | 42.69486 | 10.70178 | 23708 ft | 425 kts | 127° |
| 2026-05-07 09:25 | 42.67925 | 10.73575 | 23070 ft | 421 kts | 127° |
| 2026-05-07 09:26 | 42.66385 | 10.76928 | 22453 ft | 417 kts | 127° |
| 2026-05-07 09:26 | 42.64853 | 10.80260 | 21841 ft | 413 kts | 127° |
| 2026-05-07 09:26 | 42.63336 | 10.83561 | 21217 ft | 410 kts | 127° |
| 2026-05-07 09:26 | 42.61833 | 10.86827 | 20648 ft | 406 kts | 127° |
| 2026-05-07 09:27 | 42.60347 | 10.90057 | 20165 ft | 401 kts | 127° |
| 2026-05-07 09:27 | 42.58869 | 10.93261 | 19736 ft | 401 kts | 127° |
| 2026-05-07 09:27 | 42.55931 | 10.99625 | 18874 ft | 394 kts | 127° |
| 2026-05-07 09:28 | 42.54480 | 11.02764 | 18451 ft | 392 kts | 127° |
| 2026-05-07 09:28 | 42.53034 | 11.05888 | 18010 ft | 389 kts | 126° |
| 2026-05-07 09:28 | 42.51605 | 11.08975 | 17539 ft | 384 kts | 126° |
| 2026-05-07 09:28 | 42.50195 | 11.12018 | 17042 ft | 377 kts | 126° |
| 2026-05-07 09:29 | 42.48819 | 11.14989 | 16585 ft | 367 kts | 126° |
| 2026-05-07 09:29 | 42.47474 | 11.17889 | 16126 ft | 359 kts | 127° |
| 2026-05-07 09:29 | 42.46151 | 11.20733 | 15683 ft | 355 kts | 127° |
| 2026-05-07 09:29 | 42.44891 | 11.23594 | 15232 ft | 354 kts | 120° |
| 2026-05-07 09:30 | 42.43999 | 11.26704 | 14797 ft | 357 kts | 109° |
| 2026-05-07 09:30 | 42.43530 | 11.30005 | 14369 ft | 358 kts | 101° |
| 2026-05-07 09:30 | 42.43175 | 11.33327 | 13925 ft | 355 kts | 101° |
| 2026-05-07 09:30 | 42.42810 | 11.36628 | 13477 ft | 352 kts | 101° |
| 2026-05-07 09:31 | 42.42444 | 11.39892 | 13003 ft | 350 kts | 101° |
| 2026-05-07 09:31 | 42.42078 | 11.43123 | 12545 ft | 347 kts | 101° |
| 2026-05-07 09:31 | 42.41716 | 11.46324 | 12175 ft | 341 kts | 101° |
| 2026-05-07 09:31 | 42.41359 | 11.49471 | 11820 ft | 335 kts | 101° |
| 2026-05-07 09:32 | 42.41012 | 11.52529 | 11461 ft | 322 kts | 101° |
| 2026-05-07 09:32 | 42.40618 | 11.55473 | 11119 ft | 314 kts | 110° |
| 2026-05-07 09:32 | 42.39597 | 11.57996 | 10770 ft | 301 kts | 135° |
| 2026-05-07 09:32 | 42.37973 | 11.59624 | 10433 ft | 285 kts | 161° |
| 2026-05-07 09:33 | 42.36140 | 11.60502 | 10100 ft | 276 kts | 166° |
| 2026-05-07 09:33 | 42.34319 | 11.61252 | 9747 ft | 272 kts | 166° |
| 2026-05-07 09:33 | 42.32513 | 11.62004 | 9375 ft | 270 kts | 166° |
| 2026-05-07 09:33 | 42.30758 | 11.62769 | 9065 ft | 267 kts | 165° |
| 2026-05-07 09:34 | 42.29011 | 11.63559 | 8749 ft | 263 kts | 164° |
| 2026-05-07 09:34 | 42.27286 | 11.64355 | 8434 ft | 260 kts | 163° |
| 2026-05-07 09:34 | 42.25562 | 11.65156 | 8123 ft | 257 kts | 164° |
| 2026-05-07 09:34 | 42.23899 | 11.65891 | 7841 ft | 253 kts | 165° |
| 2026-05-07 09:35 | 42.22243 | 11.66598 | 7617 ft | 247 kts | 165° |
| 2026-05-07 09:35 | 42.20612 | 11.67292 | 7398 ft | 247 kts | 165° |
| 2026-05-07 09:35 | 42.18975 | 11.67990 | 7168 ft | 246 kts | 165° |
| 2026-05-07 09:35 | 42.17354 | 11.68685 | 6960 ft | 244 kts | 165° |
| 2026-05-07 09:36 | 42.15730 | 11.69383 | 6735 ft | 244 kts | 165° |
| 2026-05-07 09:36 | 42.14125 | 11.70075 | 6505 ft | 242 kts | 165° |
| 2026-05-07 09:36 | 42.12509 | 11.70769 | 6296 ft | 243 kts | 165° |
| 2026-05-07 09:36 | 42.10912 | 11.71457 | 6061 ft | 239 kts | 164° |
| 2026-05-07 09:37 | 42.09330 | 11.72138 | 5834 ft | 240 kts | 165° |
| 2026-05-07 09:37 | 42.07738 | 11.72821 | 5609 ft | 239 kts | 163° |
| 2026-05-07 09:37 | 42.06321 | 11.73922 | 5382 ft | 237 kts | 135° |
| 2026-05-07 09:37 | 42.05509 | 11.75861 | 5174 ft | 244 kts | 104° |
| 2026-05-07 09:38 | 42.05534 | 11.78113 | 4950 ft | 243 kts | 75° |
| 2026-05-07 09:38 | 42.06049 | 11.80274 | 4728 ft | 241 kts | 70° |
| 2026-05-07 09:38 | 42.06624 | 11.82389 | 4508 ft | 240 kts | 70° |
| 2026-05-07 09:38 | 42.07000 | 11.83782 | 4355 ft | 238 kts | 71° |
| 2026-05-07 09:39 | 42.07567 | 11.85871 | 4127 ft | 238 kts | 64° |
| 2026-05-07 09:39 | 42.08635 | 11.87527 | 3895 ft | 237 kts | 32° |
| 2026-05-07 09:39 | 42.10184 | 11.88192 | 3680 ft | 236 kts | 0° |
| 2026-05-07 09:39 | 42.11784 | 11.87777 | 3460 ft | 236 kts | 341° |
| 2026-05-07 09:40 | 42.13336 | 11.87059 | 3228 ft | 236 kts | 339° |
| 2026-05-07 09:40 | 42.14877 | 11.86318 | 3033 ft | 234 kts | 340° |
| 2026-05-07 09:40 | 42.16417 | 11.85604 | 3013 ft | 236 kts | 341° |
| 2026-05-07 09:40 | 42.17982 | 11.84907 | 2998 ft | 236 kts | 341° |
| 2026-05-07 09:41 | 42.19545 | 11.84229 | 2998 ft | 236 kts | 342° |
| 2026-05-07 09:41 | 42.21113 | 11.83559 | 2998 ft | 236 kts | 342° |
| 2026-05-07 09:41 | 42.22682 | 11.82889 | 2996 ft | 237 kts | 342° |
| 2026-05-07 09:41 | 42.24250 | 11.82220 | 2997 ft | 237 kts | 342° |
| 2026-05-07 09:42 | 42.25821 | 11.81549 | 2999 ft | 237 kts | 342° |
| 2026-05-07 09:42 | 42.27387 | 11.80880 | 2999 ft | 237 kts | 342° |
| 2026-05-07 09:42 | 42.28957 | 11.80207 | 2997 ft | 236 kts | 342° |
| 2026-05-07 09:42 | 42.30565 | 11.79799 | 3000 ft | 238 kts | 4° |
| 2026-05-07 09:43 | 42.32116 | 11.80491 | 2997 ft | 236 kts | 36° |
| 2026-05-07 09:43 | 42.33160 | 11.82154 | 2999 ft | 234 kts | 68° |
| 2026-05-07 09:43 | 42.33676 | 11.84229 | 2996 ft | 233 kts | 77° |
| 2026-05-07 09:43 | 42.34068 | 11.86346 | 2996 ft | 232 kts | 78° |
| 2026-05-07 09:44 | 42.34470 | 11.88468 | 2992 ft | 233 kts | 76° |
| 2026-05-07 09:44 | 42.34905 | 11.90574 | 2992 ft | 233 kts | 77° |
| 2026-05-07 09:44 | 42.34914 | 11.92712 | 2995 ft | 229 kts | 108° |
| 2026-05-07 09:44 | 42.34086 | 11.94497 | 2993 ft | 226 kts | 141° |
| 2026-05-07 09:45 | 42.32696 | 11.95452 | 2997 ft | 226 kts | 163° |
| 2026-05-07 09:45 | 42.31183 | 11.96026 | 2993 ft | 226 kts | 166° |
| 2026-05-07 09:45 | 42.29659 | 11.96551 | 2993 ft | 226 kts | 166° |
| 2026-05-07 09:45 | 42.28143 | 11.97108 | 2995 ft | 227 kts | 165° |
| 2026-05-07 09:46 | 42.26649 | 11.97703 | 2995 ft | 227 kts | 163° |
| 2026-05-07 09:46 | 42.25141 | 11.98331 | 2995 ft | 227 kts | 163° |
| 2026-05-07 09:46 | 42.23631 | 11.98973 | 2992 ft | 227 kts | 163° |
| 2026-05-07 09:46 | 42.22122 | 11.99618 | 2994 ft | 228 kts | 163° |
| 2026-05-07 09:47 | 42.20611 | 12.00265 | 2993 ft | 228 kts | 163° |
| 2026-05-07 09:47 | 42.19103 | 12.00910 | 2994 ft | 228 kts | 163° |
| 2026-05-07 09:47 | 42.17589 | 12.01557 | 3028 ft | 228 kts | 163° |
| 2026-05-07 09:47 | 42.16083 | 12.02202 | 3031 ft | 227 kts | 163° |
| 2026-05-07 09:48 | 42.14573 | 12.02849 | 3035 ft | 228 kts | 163° |
| 2026-05-07 09:48 | 42.13059 | 12.03496 | 3041 ft | 229 kts | 162° |
| 2026-05-07 09:48 | 42.11632 | 12.04424 | 3046 ft | 230 kts | 143° |
| 2026-05-07 09:48 | 42.10500 | 12.05937 | 3050 ft | 230 kts | 132° |
| 2026-05-07 09:49 | 42.09429 | 12.07538 | 3055 ft | 230 kts | 133° |
| 2026-05-07 09:49 | 42.08350 | 12.09128 | 3058 ft | 230 kts | 133° |
| 2026-05-07 09:49 | 42.07266 | 12.10716 | 3063 ft | 230 kts | 133° |
| 2026-05-07 09:49 | 42.06184 | 12.12298 | 3062 ft | 230 kts | 133° |
| 2026-05-07 09:50 | 42.05099 | 12.13883 | 3064 ft | 230 kts | 133° |
| 2026-05-07 09:50 | 42.04014 | 12.15470 | 3070 ft | 230 kts | 133° |
| 2026-05-07 09:50 | 42.02933 | 12.17051 | 3073 ft | 230 kts | 133° |
| 2026-05-07 09:50 | 42.01728 | 12.18458 | 3073 ft | 230 kts | 147° |
| 2026-05-07 09:51 | 42.00305 | 12.19436 | 3073 ft | 229 kts | 158° |
| 2026-05-07 09:51 | 41.98856 | 12.20137 | 3015 ft | 216 kts | 162° |
| 2026-05-07 09:51 | 41.97433 | 12.20735 | 2755 ft | 214 kts | 162° |
| 2026-05-07 09:51 | 41.96046 | 12.21323 | 2485 ft | 203 kts | 162° |
| 2026-05-07 09:52 | 41.94764 | 12.21863 | 2193 ft | 184 kts | 162° |
| 2026-05-07 09:52 | 41.93608 | 12.22351 | 1967 ft | 162 kts | 162° |
| 2026-05-07 09:52 | 41.92597 | 12.22777 | 1764 ft | 144 kts | 162° |
| 2026-05-07 09:52 | 41.91626 | 12.23186 | 1550 ft | 146 kts | 162° |
| 2026-05-07 09:53 | 41.90665 | 12.23591 | 1364 ft | 144 kts | 162° |
| 2026-05-07 09:53 | 41.89709 | 12.23993 | 1167 ft | 144 kts | 162° |
| 2026-05-07 09:53 | 41.88752 | 12.24396 | 897 ft | 144 kts | 162° |
| 2026-05-07 09:53 | 41.87794 | 12.24799 | 708 ft | 145 kts | 162° |
| 2026-05-07 09:54 | 41.86842 | 12.25200 | 519 ft | 146 kts | 162° |
| 2026-05-07 09:54 | 41.85874 | 12.25607 | 325 ft | 146 kts | 162° |
| 2026-05-07 09:54 | 41.84900 | 12.26016 | 135 ft | 147 kts | 162° |
| 2026-05-07 09:54 | 41.83926 | 12.26427 | 34 ft | 146 kts | 162° |
| 2026-05-07 09:55 | 41.83101 | 12.26762 | 21 ft | 89 kts | 162° |
| 2026-05-07 09:55 | 41.82776 | 12.26887 | 26 ft | 25 kts | 186° |
| 2026-05-07 09:55 | 41.82593 | 12.26836 | 19 ft | 19 kts | 193° |
| 2026-05-07 09:55 | 41.82563 | 12.26827 | 20 ft | 0 kts | 193° |
| 2026-05-07 09:58 | 41.82534 | 12.26819 | 18 ft | 8 kts | 192° |
| 2026-05-07 09:58 | 41.82462 | 12.26799 | 17 ft | 13 kts | 192° |
| 2026-05-07 09:58 | 41.82353 | 12.26778 | 16 ft | 18 kts | 179° |
| 2026-05-07 09:58 | 41.82216 | 12.26823 | 16 ft | 22 kts | 162° |
| 2026-05-07 09:59 | 41.82095 | 12.26874 | 14 ft | 19 kts | 162° |
| 2026-05-07 09:59 | 41.81973 | 12.26926 | 16 ft | 19 kts | 162° |
| 2026-05-07 09:59 | 41.81834 | 12.26946 | 15 ft | 22 kts | 193° |
| 2026-05-07 09:59 | 41.81737 | 12.26915 | 18 ft | 13 kts | 192° |
| 2026-05-07 10:00 | 41.81640 | 12.26927 | 22 ft | 15 kts | 162° |
| 2026-05-07 10:00 | 41.81525 | 12.26977 | 20 ft | 20 kts | 161° |
| 2026-05-07 10:00 | 41.81381 | 12.27039 | 19 ft | 23 kts | 164° |
| 2026-05-07 10:00 | 41.81256 | 12.27087 | 17 ft | 18 kts | 162° |
| 2026-05-07 10:01 | 41.81130 | 12.27142 | 17 ft | 19 kts | 162° |
| 2026-05-07 10:01 | 41.81010 | 12.27192 | 14 ft | 14 kts | 162° |
| 2026-05-07 10:01 | 41.80895 | 12.27224 | 10 ft | 19 kts | 185° |
| 2026-05-07 10:01 | 41.80786 | 12.27160 | 12 ft | 16 kts | 232° |
| 2026-05-07 10:02 | 41.80722 | 12.27055 | 11 ft | 10 kts | 181° |
| 2026-05-07 10:02 | 41.80644 | 12.27044 | 13 ft | 13 kts | 196° |
| 2026-05-07 10:02 | 41.80581 | 12.26957 | 15 ft | 15 kts | 249° |
| 2026-05-07 10:02 | 41.80541 | 12.26816 | 16 ft | 18 kts | 250° |
| 2026-05-07 10:03 | 41.80493 | 12.26640 | 14 ft | 22 kts | 250° |
| 2026-05-07 10:03 | 41.80447 | 12.26471 | 15 ft | 15 kts | 250° |
| 2026-05-07 10:03 | 41.80369 | 12.26369 | 14 ft | 18 kts | 183° |
| 2026-05-07 10:03 | 41.80254 | 12.26412 | 17 ft | 15 kts | 171° |
| 2026-05-07 10:04 | 41.80148 | 12.26365 | 18 ft | 18 kts | 206° |
| 2026-05-07 10:04 | 41.80027 | 12.26290 | 18 ft | 21 kts | 205° |
| 2026-05-07 10:04 | 41.79897 | 12.26212 | 19 ft | 17 kts | 204° |
| 2026-05-07 10:04 | 41.79825 | 12.26114 | 17 ft | 4 kts | 276° |
| 2026-05-07 10:05 | 41.79809 | 12.26069 | 19 ft | 8 kts | 218° |
| 2026-05-07 10:05 | 41.79792 | 12.25995 | 16 ft | 10 kts | 283° |
| 2026-05-07 10:05 | 41.79767 | 12.25946 | 16 ft | 7 kts | 211° |
| 2026-05-07 10:05 | 41.79747 | 12.25933 | 16 ft | 2 kts | 205° |
| 2026-05-07 10:06 | 41.79745 | 12.25932 | 16 ft | 0 kts | 205° |